Time;durP1;ratioP1;P1;durP2;ratioP2;P2;SDS_P1;SDS_P2;PMS_P1;PMS_P2;Temp;Humidity;BMP_temperature;BMP_pressure;BME280_temperature;BME280_humidity;BME280_pressure;Samples;Min_cycle;Max_cycle;Signal;HPM_P1;HPM_P2
2021/12/03 00:01:08;;;;;;;9.80;6.45;;;;;;;2.64;100.00;95498.38;4946893;28;20062;-49
2021/12/03 00:03:38;;;;;;;10.38;5.90;;;;;;;2.74;100.00;95507.09;4954079;28;20082;-50
2021/12/03 00:06:07;;;;;;;9.40;6.53;;;;;;;2.68;100.00;95514.56;4947568;28;20461;-51
2021/12/03 00:08:35;;;;;;;6.55;4.97;;;;;;;2.76;100.00;95515.63;4951184;28;20081;-52
2021/12/03 00:11:04;;;;;;;10.95;6.53;;;;;;;2.56;100.00;95519.78;4952042;28;20107;-50
2021/12/03 00:13:34;;;;;;;11.50;7.15;;;;;;;2.53;100.00;95521.81;4948273;28;20567;-49
2021/12/03 00:16:03;;;;;;;9.90;6.32;;;;;;;2.37;100.00;95516.94;4947008;28;20635;-53
2021/12/03 00:18:34;;;;;;;12.38;8.80;;;;;;;2.37;100.00;95525.59;4949395;28;20070;-47
2021/12/03 00:21:06;;;;;;;13.35;7.97;;;;;;;2.29;100.00;95524.50;4954997;28;20063;-48
2021/12/03 00:23:35;;;;;;;16.73;7.95;;;;;;;2.40;100.00;95528.88;4950041;28;20097;-46
2021/12/03 00:26:05;;;;;;;16.92;8.95;;;;;;;2.45;100.00;95540.63;4952237;28;20158;-52
2021/12/03 00:28:34;;;;;;;14.90;8.18;;;;;;;2.38;100.00;95542.03;4957708;28;20073;-45
2021/12/03 00:31:03;;;;;;;14.90;8.38;;;;;;;2.34;100.00;95554.44;4950392;28;20046;-48
2021/12/03 00:33:33;;;;;;;12.18;7.72;;;;;;;2.24;100.00;95558.69;4948281;28;20471;-47
2021/12/03 00:36:05;;;;;;;10.10;6.30;;;;;;;2.18;100.00;95566.94;4951201;28;20074;-51
2021/12/03 00:38:37;;;;;;;17.38;8.38;;;;;;;2.31;100.00;95572.06;4947325;28;20698;-47
2021/12/03 00:41:07;;;;;;;15.13;9.63;;;;;;;2.28;100.00;95587.88;4955168;28;20082;-53
2021/12/03 00:43:40;;;;;;;14.00;8.30;;;;;;;2.19;100.00;95593.78;4949309;28;20075;-52
2021/12/03 00:46:10;;;;;;;15.95;8.95;;;;;;;2.31;100.00;95603.28;4951288;28;20070;-48
2021/12/03 00:48:40;;;;;;;14.43;8.93;;;;;;;2.50;100.00;95607.91;4947375;28;20115;-50
2021/12/03 00:51:10;;;;;;;16.30;9.07;;;;;;;2.52;100.00;95619.84;4947759;28;20067;-47
2021/12/03 00:53:38;;;;;;;14.52;9.23;;;;;;;2.58;100.00;95626.34;4950538;28;20067;-48
2021/12/03 00:56:08;;;;;;;17.48;9.93;;;;;;;2.56;100.00;95638.66;4950330;28;20079;-47
2021/12/03 00:58:36;;;;;;;18.73;10.35;;;;;;;2.75;100.00;95638.94;4944285;28;21662;-53
2021/12/03 01:01:06;;;;;;;15.30;9.82;;;;;;;2.77;100.00;95644.84;4948277;28;20063;-48
2021/12/03 01:03:36;;;;;;;15.35;9.38;;;;;;;2.75;100.00;95659.78;4952804;28;20071;-51
2021/12/03 01:06:06;;;;;;;14.75;8.88;;;;;;;2.65;100.00;95664.00;4947393;28;20066;-51
2021/12/03 01:08:36;;;;;;;14.98;8.63;;;;;;;2.63;100.00;95657.25;4949744;28;20167;-50
2021/12/03 01:11:05;;;;;;;16.85;9.75;;;;;;;2.61;100.00;95659.97;4950197;28;20521;-49
2021/12/03 01:13:34;;;;;;;17.65;9.60;;;;;;;2.78;100.00;95664.72;4942146;28;20085;-49
2021/12/03 01:16:04;;;;;;;17.10;10.18;;;;;;;2.91;100.00;95667.22;4952629;28;20470;-52
2021/12/03 01:18:33;;;;;;;17.83;8.63;;;;;;;2.80;100.00;95675.84;4947861;28;20098;-49
2021/12/03 01:21:03;;;;;;;18.13;10.07;;;;;;;2.87;100.00;95668.41;4946818;28;20608;-51
2021/12/03 01:23:33;;;;;;;18.38;10.52;;;;;;;3.00;100.00;95681.31;4949028;28;20098;-51
2021/12/03 01:26:01;;;;;;;18.25;9.93;;;;;;;2.93;100.00;95693.16;4950158;28;20541;-55
2021/12/03 01:28:30;;;;;;;20.42;11.02;;;;;;;3.05;100.00;95700.84;4957241;28;20093;-48
2021/12/03 01:30:59;;;;;;;16.30;9.32;;;;;;;2.66;100.00;95712.50;4949003;28;20841;-49
2021/12/03 01:33:28;;;;;;;14.18;8.43;;;;;;;2.48;100.00;95714.72;4954378;28;20544;-52
2021/12/03 01:35:56;;;;;;;13.88;8.88;;;;;;;2.42;100.00;95725.56;4946366;28;20078;-52
2021/12/03 01:38:25;;;;;;;15.30;9.15;;;;;;;2.53;100.00;95733.41;4946506;28;20090;-48
2021/12/03 01:40:55;;;;;;;16.90;9.82;;;;;;;2.74;100.00;95735.34;4955188;28;20541;-47
2021/12/03 01:43:25;;;;;;;16.95;10.25;;;;;;;2.93;100.00;95724.41;4948808;28;20643;-49
2021/12/03 01:45:55;;;;;;;18.08;9.90;;;;;;;2.89;100.00;95731.63;4950943;28;20079;-49
2021/12/03 01:48:23;;;;;;;14.05;8.90;;;;;;;2.66;100.00;95727.31;4946395;28;20070;-50
2021/12/03 01:50:53;;;;;;;18.98;10.38;;;;;;;2.81;100.00;95724.38;4952642;28;20601;-52
2021/12/03 01:53:25;;;;;;;16.08;9.55;;;;;;;2.52;100.00;95717.91;4957373;28;20055;-52
2021/12/03 01:55:59;;;;;;;19.40;11.35;;;;;;;2.93;100.00;95719.19;4953953;28;20564;-51
2021/12/03 01:58:28;;;;;;;17.08;10.52;;;;;;;2.79;100.00;95715.84;4950591;28;20063;-51
2021/12/03 02:00:59;;;;;;;18.17;11.00;;;;;;;2.84;100.00;95705.09;4956256;28;20426;-49
2021/12/03 02:03:30;;;;;;;15.77;10.23;;;;;;;2.54;100.00;95709.03;4951565;28;20067;-50
2021/12/03 02:05:59;;;;;;;17.52;11.30;;;;;;;2.66;100.00;95701.28;4951396;28;20074;-47
2021/12/03 02:08:28;;;;;;;19.17;10.90;;;;;;;2.46;100.00;95710.56;4952842;28;20087;-47
2021/12/03 02:10:58;;;;;;;17.45;10.30;;;;;;;2.61;100.00;95714.63;4952769;28;20082;-52
2021/12/03 02:13:27;;;;;;;20.13;11.57;;;;;;;2.47;100.00;95707.84;4950717;28;20097;-46
2021/12/03 02:15:55;;;;;;;18.77;11.45;;;;;;;2.76;100.00;95710.88;4951566;28;20102;-49
2021/12/03 02:18:24;;;;;;;20.38;11.07;;;;;;;2.54;100.00;95721.22;4956452;28;20070;-46
2021/12/03 02:20:57;;;;;;;17.45;10.38;;;;;;;2.28;100.00;95713.56;4949611;28;20079;-48
2021/12/03 02:23:27;;;;;;;18.60;10.70;;;;;;;2.13;100.00;95720.72;4951033;28;20095;-48
2021/12/03 02:25:55;;;;;;;21.80;12.50;;;;;;;2.50;100.00;95719.78;4961707;28;20089;-52
2021/12/03 02:28:29;;;;;;;18.70;11.48;;;;;;;2.59;100.00;95724.31;4950950;28;20085;-49
2021/12/03 02:30:57;;;;;;;19.90;11.23;;;;;;;2.63;100.00;95717.94;4947319;28;20070;-48
2021/12/03 02:33:26;;;;;;;19.23;11.45;;;;;;;2.55;100.00;95720.28;4949530;28;20074;-49
2021/12/03 02:35:56;;;;;;;19.15;11.40;;;;;;;2.75;100.00;95727.44;4953002;28;21060;-47
2021/12/03 02:38:26;;;;;;;18.58;11.02;;;;;;;2.57;100.00;95715.78;4953032;28;20086;-45
2021/12/03 02:40:55;;;;;;;18.10;11.00;;;;;;;2.64;100.00;95729.19;4951720;28;20113;-50
2021/12/03 02:43:25;;;;;;;21.70;11.32;;;;;;;2.36;100.00;95732.03;4952288;28;20485;-48
2021/12/03 02:45:57;;;;;;;17.42;10.77;;;;;;;2.55;100.00;95736.75;4950852;28;20048;-48
2021/12/03 02:48:27;;;;;;;20.80;12.10;;;;;;;2.44;100.00;95738.44;4949589;28;20051;-52
2021/12/03 02:50:57;;;;;;;19.92;11.23;;;;;;;2.64;100.00;95750.81;4949581;28;20067;-49
2021/12/03 02:53:25;;;;;;;20.23;10.27;;;;;;;2.47;100.00;95746.03;4958531;28;20083;-52
2021/12/03 02:55:54;;;;;;;18.83;9.40;;;;;;;2.47;100.00;95754.66;4954629;28;20081;-50
2021/12/03 02:58:22;;;;;;;19.95;11.23;;;;;;;2.66;100.00;95755.94;4948565;28;20062;-53
2021/12/03 03:00:52;;;;;;;17.83;11.07;;;;;;;2.77;100.00;95754.19;4948481;28;20082;-51
2021/12/03 03:03:21;;;;;;;14.02;9.63;;;;;;;2.50;100.00;95764.03;4954321;28;20067;-48
2021/12/03 03:05:53;;;;;;;18.92;9.32;;;;;;;2.44;100.00;95767.91;4954504;28;20801;-50
2021/12/03 03:08:23;;;;;;;18.77;10.98;;;;;;;2.68;100.00;95769.66;4949845;28;20085;-51
2021/12/03 03:10:54;;;;;;;22.27;11.70;;;;;;;2.57;100.00;95776.47;4954044;28;20078;-47
2021/12/03 03:13:22;;;;;;;16.75;11.40;;;;;;;2.80;100.00;95776.56;4950206;28;20551;-48
2021/12/03 03:15:51;;;;;;;20.08;12.27;;;;;;;2.58;100.00;95778.16;4946932;28;20048;-50
2021/12/03 03:18:23;;;;;;;21.92;11.07;;;;;;;2.52;100.00;95778.59;4950653;28;20090;-48
2021/12/03 03:20:54;;;;;;;19.00;10.48;;;;;;;2.44;100.00;95791.31;4951169;28;20063;-48
2021/12/03 03:23:24;;;;;;;16.52;10.18;;;;;;;2.35;100.00;95785.03;4950247;28;20093;-47
2021/12/03 03:25:53;;;;;;;16.17;10.02;;;;;;;2.53;100.00;95784.63;4956815;28;20079;-50
2021/12/03 03:28:23;;;;;;;19.05;11.48;;;;;;;2.67;100.00;95784.44;4949772;28;20705;-51
2021/12/03 03:30:55;;;;;;;19.35;11.68;;;;;;;2.63;100.00;95782.19;4953272;28;20066;-51
2021/12/03 03:33:24;;;;;;;19.25;11.77;;;;;;;2.73;100.00;95785.78;4952732;28;20074;-53
2021/12/03 03:35:53;;;;;;;17.08;11.05;;;;;;;2.52;100.00;95789.00;4950706;28;20068;-49
2021/12/03 03:38:23;;;;;;;19.13;11.60;;;;;;;2.75;100.00;95791.69;4949673;28;20087;-49
2021/12/03 03:40:52;;;;;;;17.92;11.80;;;;;;;2.78;100.00;95796.66;4952091;28;20071;-49
2021/12/03 03:43:21;;;;;;;20.58;11.27;;;;;;;2.95;100.00;95798.03;4953782;28;20083;-49
2021/12/03 03:45:51;;;;;;;18.15;11.75;;;;;;;2.88;100.00;95799.41;4948469;28;20502;-50
2021/12/03 03:48:20;;;;;;;17.60;11.23;;;;;;;2.84;100.00;95802.25;4958174;28;20077;-51
2021/12/03 03:50:49;;;;;;;18.13;11.13;;;;;;;2.91;100.00;95802.63;4952389;28;20541;-53
2021/12/03 03:53:17;;;;;;;16.60;10.48;;;;;;;2.87;100.00;95809.00;4949977;28;20616;-49
2021/12/03 03:55:47;;;;;;;15.50;9.77;;;;;;;2.53;100.00;95811.47;4961148;28;20086;-49
2021/12/03 03:58:15;;;;;;;17.90;10.43;;;;;;;2.60;100.00;95810.09;4949680;28;20073;-49
2021/12/03 04:00:46;;;;;;;19.98;10.20;;;;;;;2.63;100.00;95803.84;4956587;28;20490;-50
2021/12/03 04:03:15;;;;;;;17.63;10.75;;;;;;;2.59;100.00;95800.63;4955347;28;20047;-46
2021/12/03 04:05:44;;;;;;;17.45;10.80;;;;;;;2.50;100.00;95814.28;4948389;28;20063;-45
2021/12/03 04:08:12;;;;;;;13.45;8.75;;;;;;;2.18;100.00;95821.00;4953072;28;20086;-48
2021/12/03 04:10:41;;;;;;;9.18;5.82;;;;;;;1.98;100.00;95817.19;4949823;28;20086;-49
2021/12/03 04:13:11;;;;;;;11.90;7.28;;;;;;;1.98;100.00;95819.78;4955232;28;20047;-46
2021/12/03 04:15:40;;;;;;;12.07;7.50;;;;;;;1.86;100.00;95821.50;4946570;28;20074;-47
2021/12/03 04:18:08;;;;;;;11.27;7.45;;;;;;;1.97;100.00;95824.16;4957965;28;20070;-50
2021/12/03 04:20:37;;;;;;;11.63;7.45;;;;;;;1.98;100.00;95831.03;4952716;28;20073;-51
2021/12/03 04:23:05;;;;;;;25.48;7.88;;;;;;;1.97;100.00;95829.38;4952121;28;20078;-51
2021/12/03 04:25:34;;;;;;;13.90;9.57;;;;;;;2.01;100.00;95835.19;4948399;28;20090;-50
2021/12/03 04:28:03;;;;;;;8.68;5.82;;;;;;;1.79;100.00;95831.50;4947723;28;20073;-52
2021/12/03 04:30:33;;;;;;;13.45;8.25;;;;;;;1.84;100.00;95839.78;4952264;28;20070;-48
2021/12/03 04:33:02;;;;;;;12.65;7.63;;;;;;;2.06;100.00;95828.69;4951081;28;20078;-45
2021/12/03 04:35:31;;;;;;;14.95;7.78;;;;;;;2.13;100.00;95837.75;4954381;28;20117;-44
2021/12/03 04:38:00;;;;;;;13.52;7.55;;;;;;;2.09;100.00;95835.47;4951188;28;20082;-53
2021/12/03 04:40:30;;;;;;;10.60;6.60;;;;;;;2.09;100.00;95838.06;4947147;28;20079;-47
2021/12/03 04:42:59;;;;;;;14.05;8.65;;;;;;;2.06;100.00;95844.31;4953020;28;20069;-52
2021/12/03 04:45:29;;;;;;;17.60;9.75;;;;;;;2.28;100.00;95851.44;4951517;28;20075;-50
2021/12/03 04:48:00;;;;;;;12.80;8.70;;;;;;;2.15;100.00;95853.25;4953297;28;20078;-45
2021/12/03 04:50:31;;;;;;;16.42;8.85;;;;;;;2.02;100.00;95857.63;4952124;28;20086;-50
2021/12/03 04:52:59;;;;;;;16.00;8.60;;;;;;;2.16;100.00;95865.31;4957581;28;20066;-50
2021/12/03 04:55:28;;;;;;;13.38;8.68;;;;;;;2.18;100.00;95871.25;4954729;28;20089;-49
2021/12/03 04:57:56;;;;;;;13.75;9.52;;;;;;;2.23;100.00;95869.13;4950077;28;20063;-50
2021/12/03 05:00:29;;;;;;;10.48;6.50;;;;;;;1.95;100.00;95878.03;4954851;28;20079;-48
2021/12/03 05:03:00;;;;;;;8.38;6.55;;;;;;;1.87;100.00;95883.78;4947211;28;20063;-49
2021/12/03 05:05:32;;;;;;;12.27;7.65;;;;;;;2.01;100.00;95879.38;4950014;28;20083;-48
2021/12/03 05:08:04;;;;;;;9.50;5.78;;;;;;;1.81;100.00;95889.38;4949065;28;20078;-50
2021/12/03 05:10:34;;;;;;;9.70;6.85;;;;;;;2.02;100.00;95896.66;4929402;28;20533;-47
2021/12/03 05:13:05;;;;;;;10.07;6.68;;;;;;;2.00;100.00;95888.13;4953108;28;20058;-47
2021/12/03 05:15:35;;;;;;;8.13;6.38;;;;;;;1.89;100.00;95897.50;4952445;28;20543;-50
2021/12/03 05:18:05;;;;;;;9.95;7.50;;;;;;;2.09;100.00;95900.47;4944594;28;20078;-47
2021/12/03 05:20:34;;;;;;;13.70;8.73;;;;;;;2.27;100.00;95901.81;4945306;28;20071;-47
2021/12/03 05:23:04;;;;;;;14.10;7.97;;;;;;;2.00;100.00;95904.56;4958085;28;20059;-47
2021/12/03 05:25:34;;;;;;;16.17;9.48;;;;;;;2.14;100.00;95909.63;4935531;28;20070;-47
2021/12/03 05:28:03;;;;;;;14.40;8.90;;;;;;;2.10;100.00;95910.78;4946454;28;20518;-50
2021/12/03 05:30:32;;;;;;;15.90;9.30;;;;;;;2.13;100.00;95918.38;4947300;28;20081;-47
2021/12/03 05:33:01;;;;;;;13.52;7.82;;;;;;;2.07;100.00;95925.78;4939542;28;20058;-47
2021/12/03 05:35:31;;;;;;;14.45;9.52;;;;;;;2.13;100.00;95928.78;4946962;28;20075;-48
2021/12/03 05:38:00;;;;;;;11.27;7.25;;;;;;;2.16;100.00;95932.09;4952736;28;20102;-46
2021/12/03 05:40:28;;;;;;;10.55;7.25;;;;;;;1.92;100.00;95937.22;4955483;28;20063;-54
2021/12/03 05:42:57;;;;;;;14.55;7.72;;;;;;;1.69;100.00;95939.63;4954322;28;20071;-48
2021/12/03 05:45:28;;;;;;;10.80;7.65;;;;;;;1.97;100.00;95935.16;4950665;28;20453;-47
2021/12/03 05:47:57;;;;;;;12.07;8.38;;;;;;;2.09;100.00;95947.28;4954024;28;20075;-54
2021/12/03 05:50:26;;;;;;;12.85;8.68;;;;;;;2.10;100.00;95946.38;4948836;28;20540;-49
2021/12/03 05:52:57;;;;;;;13.40;7.97;;;;;;;2.16;100.00;95953.72;4951217;28;20090;-46
2021/12/03 05:55:26;;;;;;;15.13;7.60;;;;;;;2.06;100.00;95950.94;4949507;28;20079;-49
2021/12/03 05:57:54;;;;;;;11.27;8.00;;;;;;;1.94;100.00;95956.16;4949798;28;20070;-47
2021/12/03 06:00:25;;;;;;;14.35;9.13;;;;;;;2.19;100.00;95968.31;4949679;28;20079;-47
2021/12/03 06:02:54;;;;;;;11.57;8.25;;;;;;;1.94;100.00;95971.75;4946580;28;20151;-52
2021/12/03 06:05:23;;;;;;;11.63;7.03;;;;;;;1.82;100.00;95976.00;4949580;28;20087;-47
2021/12/03 06:07:52;;;;;;;12.93;8.68;;;;;;;1.86;100.00;95987.88;4951938;29;20091;-47
2021/12/03 06:10:22;;;;;;;17.05;9.57;;;;;;;1.89;100.00;95993.69;4950645;28;20083;-51
2021/12/03 06:12:51;;;;;;;18.42;10.98;;;;;;;1.84;100.00;95994.94;4945537;28;20047;-48
2021/12/03 06:15:20;;;;;;;13.73;8.00;;;;;;;1.93;100.00;95993.47;4949572;28;20081;-48
2021/12/03 06:17:49;;;;;;;12.95;7.60;;;;;;;1.92;100.00;95991.81;4949609;28;20067;-50
2021/12/03 06:20:18;;;;;;;13.30;7.25;;;;;;;1.74;100.00;95993.88;4949032;28;20089;-48
2021/12/03 06:22:46;;;;;;;10.68;7.03;;;;;;;1.85;100.00;95997.41;4951158;29;20086;-46
2021/12/03 06:25:19;;;;;;;13.05;8.57;;;;;;;1.94;100.00;96003.78;4948988;28;20818;-52
2021/12/03 06:27:49;;;;;;;10.55;7.38;;;;;;;1.99;100.00;96006.88;4958500;28;20077;-51
2021/12/03 06:30:20;;;;;;;12.80;8.73;;;;;;;2.20;100.00;96011.56;4945138;28;20081;-55
2021/12/03 06:32:49;;;;;;;16.85;9.38;;;;;;;2.18;100.00;96021.28;4949262;28;20077;-49
2021/12/03 06:35:19;;;;;;;9.45;7.05;;;;;;;2.01;100.00;96017.19;4948168;28;20082;-51
2021/12/03 06:37:47;;;;;;;11.88;7.60;;;;;;;1.99;100.00;96024.25;4951889;29;20537;-48
2021/12/03 06:40:18;;;;;;;12.43;7.65;;;;;;;1.94;100.00;96027.19;4948522;28;20094;-54
2021/12/03 06:42:48;;;;;;;14.65;8.20;;;;;;;1.97;100.00;96029.56;4949232;28;20059;-49
2021/12/03 06:45:17;;;;;;;14.30;8.35;;;;;;;2.19;100.00;96028.13;4945671;29;20470;-48
2021/12/03 06:47:46;;;;;;;13.32;8.10;;;;;;;2.06;100.00;96033.31;4947895;28;20075;-51
2021/12/03 06:50:20;;;;;;;14.13;8.73;;;;;;;2.26;100.00;96037.19;4945805;29;20098;-50
2021/12/03 06:52:55;;;;;;;14.05;9.43;;;;;;;2.23;100.00;96039.97;4944134;28;20090;-50
2021/12/03 06:55:24;;;;;;;15.80;9.00;;;;;;;2.41;100.00;96045.69;4946393;28;20047;-51
2021/12/03 06:57:53;;;;;;;15.60;9.50;;;;;;;2.34;100.00;96042.69;4944953;29;20074;-52
2021/12/03 07:00:23;;;;;;;13.23;8.43;;;;;;;2.10;100.00;96055.59;4947757;29;20075;-54
2021/12/03 07:02:51;;;;;;;13.57;9.40;;;;;;;2.31;100.00;96058.53;4948737;28;20066;-48
2021/12/03 07:05:21;;;;;;;15.35;9.85;;;;;;;2.27;100.00;96059.66;4951420;28;20536;-51
2021/12/03 07:07:50;;;;;;;14.20;9.52;;;;;;;2.49;100.00;96059.03;4956644;28;20082;-48
2021/12/03 07:10:18;;;;;;;11.10;7.85;;;;;;;2.29;100.00;96066.41;4951955;28;20081;-53
2021/12/03 07:12:47;;;;;;;15.55;9.57;;;;;;;2.54;100.00;96064.75;4950876;28;20203;-48
2021/12/03 07:15:17;;;;;;;13.98;9.35;;;;;;;2.66;100.00;96065.69;4950971;28;20090;-47
2021/12/03 07:17:49;;;;;;;;;;;;;;;2.52;100.00;96067.47;4947677;28;20078;-51
2021/12/03 07:20:19;;;;;;;14.02;8.77;;;;;;;2.72;100.00;96067.84;4949457;28;19964;-49
2021/12/03 07:22:47;;;;;;;14.82;9.55;;;;;;;2.54;100.00;96078.59;4952255;28;20090;-48
2021/12/03 07:25:17;;;;;;;12.88;8.38;;;;;;;2.24;100.00;96084.13;4949666;28;20066;-47
2021/12/03 07:27:46;;;;;;;13.68;8.90;;;;;;;2.57;100.00;96082.75;4948948;28;20039;-47
2021/12/03 07:30:18;;;;;;;12.57;8.75;;;;;;;2.65;100.00;96087.44;4948397;29;20493;-50
2021/12/03 07:32:47;;;;;;;15.68;10.13;;;;;;;2.67;100.00;96094.19;4945399;29;20067;-48
2021/12/03 07:35:15;;;;;;;13.18;8.25;;;;;;;2.52;100.00;96090.06;4949212;28;20098;-51
2021/12/03 07:37:44;;;;;;;17.02;9.82;;;;;;;2.93;100.00;96094.19;4950963;29;20051;-46
2021/12/03 07:40:13;;;;;;;13.52;9.45;;;;;;;2.73;100.00;96104.19;4949209;28;20074;-47
2021/12/03 07:42:42;;;;;;;16.02;9.75;;;;;;;2.92;100.00;96101.16;4948469;29;20071;-50
2021/12/03 07:45:13;;;;;;;13.45;9.27;;;;;;;2.77;100.00;96107.44;4947780;28;20074;-46
2021/12/03 07:47:43;;;;;;;12.90;8.80;;;;;;;2.59;100.00;96106.91;4949271;29;20067;-47
2021/12/03 07:50:12;;;;;;;14.63;8.90;;;;;;;2.86;100.00;96106.81;4949038;28;20087;-49
2021/12/03 07:52:41;;;;;;;13.98;8.80;;;;;;;2.53;100.00;96108.16;4950282;29;21328;-51
2021/12/03 07:55:10;;;;;;;11.93;8.20;;;;;;;2.59;100.00;96115.56;4949146;29;20067;-48
2021/12/03 07:57:38;;;;;;;7.85;6.15;;;;;;;2.30;100.00;96104.50;4948878;28;20063;-49
2021/12/03 08:00:09;;;;;;;11.40;6.63;;;;;;;2.43;100.00;96121.91;4948159;28;20066;-48
2021/12/03 08:02:38;;;;;;;8.75;6.22;;;;;;;2.38;100.00;96119.63;4953714;28;20089;-49
2021/12/03 08:05:08;;;;;;;9.63;5.28;;;;;;;2.65;100.00;96119.53;4956825;28;20094;-52
2021/12/03 08:07:37;;;;;;;9.13;6.82;;;;;;;2.70;100.00;96120.03;4947423;29;20502;-48
2021/12/03 08:10:07;;;;;;;11.93;8.38;;;;;;;2.75;100.00;96117.97;4948017;29;20054;-48
2021/12/03 08:12:35;;;;;;;10.98;7.75;;;;;;;2.69;100.00;96126.19;4948502;28;20488;-49
2021/12/03 08:15:05;;;;;;;11.90;8.25;;;;;;;2.75;100.00;96122.31;4948272;28;20063;-48
2021/12/03 08:17:33;;;;;;;13.20;8.73;;;;;;;2.84;100.00;96130.31;4948050;29;20082;-51
2021/12/03 08:20:02;;;;;;;9.98;6.72;;;;;;;2.68;100.00;96128.88;4950825;29;20171;-47
2021/12/03 08:22:32;;;;;;;11.20;7.35;;;;;;;2.63;100.00;96130.97;4947569;28;20093;-53
2021/12/03 08:25:00;;;;;;;12.13;7.93;;;;;;;2.89;100.00;96134.38;4948623;29;20607;-50
2021/12/03 08:27:29;;;;;;;13.30;8.88;;;;;;;2.89;100.00;96139.59;4948629;28;20078;-50
2021/12/03 08:29:57;;;;;;;14.52;8.38;;;;;;;2.54;100.00;96141.03;4947974;29;20059;-47
2021/12/03 08:32:26;;;;;;;11.00;7.90;;;;;;;2.58;100.00;96147.75;4947732;29;20086;-51
2021/12/03 08:34:54;;;;;;;12.95;8.70;;;;;;;2.93;100.00;96143.69;4950547;28;20086;-52
2021/12/03 08:37:22;;;;;;;12.07;8.23;;;;;;;2.91;100.00;96141.16;4947698;28;20071;-52
2021/12/03 08:39:52;;;;;;;11.90;8.15;;;;;;;2.68;100.00;96152.31;4947641;29;20081;-45
2021/12/03 08:42:21;;;;;;;11.55;8.20;;;;;;;2.68;100.00;96147.94;4947429;28;20082;-48
2021/12/03 08:44:50;;;;;;;12.43;8.35;;;;;;;2.47;100.00;96155.41;4947976;29;20086;-48
2021/12/03 08:47:18;;;;;;;14.27;8.43;;;;;;;2.87;100.00;96162.31;4947328;29;20085;-49
2021/12/03 08:49:50;;;;;;;9.90;6.82;;;;;;;2.43;100.00;96160.94;4949770;29;20093;-47
2021/12/03 08:55:09;;;;;;;12.63;7.75;;;;;;;2.37;100.00;96164.75;4921354;29;20075;-48
2021/12/03 08:57:38;;;;;;;14.20;8.40;;;;;;;2.56;100.00;96162.63;4947650;28;20646;-47
2021/12/03 09:00:11;;;;;;;10.23;7.20;;;;;;;2.66;100.00;96168.03;4954187;28;20067;-50
2021/12/03 09:02:39;;;;;;;12.63;7.82;;;;;;;2.72;100.00;96170.22;4946937;28;20636;-48
2021/12/03 09:05:09;;;;;;;12.50;8.98;;;;;;;2.83;100.00;96174.72;4948968;28;20074;-48
2021/12/03 09:07:38;;;;;;;16.13;9.15;;;;;;;2.64;100.00;96164.69;4939892;28;20063;-49
2021/12/03 09:10:17;;;;;;;14.82;9.48;;;;;;;2.73;100.00;96177.09;4946716;28;20481;-49
2021/12/03 09:12:45;;;;;;;12.95;9.00;;;;;;;3.08;100.00;96166.88;4947743;29;20074;-51
2021/12/03 09:15:17;;;;;;;13.15;8.68;;;;;;;3.24;100.00;96171.88;4947832;28;20557;-52
2021/12/03 09:17:57;;;;;;;12.05;8.40;;;;;;;3.16;100.00;96179.38;4941715;29;20074;-52
2021/12/03 09:20:37;;;;;;;12.70;8.27;;;;;;;3.01;100.00;96180.44;4947544;29;20097;-51
2021/12/03 09:23:09;;;;;;;13.13;8.63;;;;;;;2.86;100.00;96179.72;4949664;28;20090;-48
2021/12/03 09:25:45;;;;;;;10.20;7.18;;;;;;;2.82;100.00;96184.31;4947012;29;20075;-49
2021/12/03 09:28:19;;;;;;;13.40;8.70;;;;;;;2.88;100.00;96177.81;4947761;29;20313;-51
2021/12/03 09:30:48;;;;;;;10.70;8.35;;;;;;;3.05;100.00;96182.72;4947647;28;20082;-48
2021/12/03 09:33:18;;;;;;;13.23;8.25;;;;;;;2.63;100.00;96185.63;4947578;29;20063;-47
2021/12/03 09:35:53;;;;;;;11.30;7.30;;;;;;;2.63;100.00;96188.25;4947636;28;20047;-53
2021/12/03 09:38:22;;;;;;;8.52;6.38;;;;;;;2.78;100.00;96187.19;4942066;29;20474;-51
2021/12/03 09:40:52;;;;;;;12.65;8.13;;;;;;;3.12;100.00;96179.69;4949876;28;20105;-51
2021/12/03 09:43:20;;;;;;;9.75;7.43;;;;;;;3.08;100.00;96173.84;4946834;29;20079;-50
2021/12/03 09:45:58;;;;;;;12.30;7.68;;;;;;;3.02;100.00;96172.50;4947016;29;20167;-51
2021/12/03 09:48:39;;;;;;;11.15;7.50;;;;;;;2.90;100.00;96175.97;4948027;28;20074;-53
2021/12/03 09:51:08;;;;;;;10.88;7.78;;;;;;;2.75;100.00;96185.66;4946738;28;20070;-52
2021/12/03 09:54:02;;;;;;;11.57;7.43;;;;;;;3.15;100.00;96177.72;4947829;28;20078;-55
2021/12/03 09:56:33;;;;;;;10.30;7.82;;;;;;;3.25;100.00;96173.53;4954820;28;24129;-51
2021/12/03 10:01:55;;;;;;;10.45;7.05;;;;;;;3.12;100.00;96172.69;4945478;29;21440;-45
2021/12/03 10:04:40;;;;;;;10.82;7.88;;;;;;;3.02;100.00;96177.72;4947126;29;20113;-49
2021/12/03 10:10:37;;;;;;;9.68;7.22;;;;;;;2.91;100.00;96159.38;4950370;28;20067;-52
2021/12/03 10:13:15;;;;;;;12.45;7.95;;;;;;;3.20;100.00;96165.22;4950586;28;20074;-48
2021/12/03 10:15:50;;;;;;;8.98;6.13;;;;;;;3.31;100.00;96156.63;4951236;29;20094;-49
2021/12/03 10:18:32;;;;;;;9.13;6.88;;;;;;;3.29;100.00;96151.50;4950944;28;20062;-48
2021/12/03 10:21:08;;;;;;;9.45;6.43;;;;;;;3.13;100.00;96150.91;4945163;28;20077;-48
2021/12/03 10:29:13;;;;;;;11.43;7.53;;;;;;;3.59;100.00;96152.91;4952494;29;20117;-44
2021/12/03 10:43:48;;;;;;;10.63;7.53;;;;;;;3.65;100.00;96134.22;5007739;28;20076;-51
2021/12/03 10:46:32;;;;;;;9.75;7.38;;;;;;;3.60;100.00;96138.09;5021227;28;20069;-47
2021/12/03 10:49:13;;;;;;;9.52;6.30;;;;;;;3.38;100.00;96124.00;5023150;28;20073;-52
2021/12/03 10:51:54;;;;;;;10.50;7.18;;;;;;;3.73;100.00;96123.25;5020130;28;20171;-52
2021/12/03 11:06:42;;;;;;;9.73;6.70;;;;;;;3.69;100.00;96120.03;5035715;28;20060;-52
2021/12/03 11:18:07;;;;;;;7.07;5.05;;;;;;;3.95;100.00;96112.06;5027566;28;20069;-50
2021/12/03 11:29:22;;;;;;;4.22;3.83;;;;;;;3.83;100.00;96111.19;5041473;28;20502;-47
2021/12/03 11:40:37;;;;;;;6.47;5.32;;;;;;;3.91;100.00;96114.06;5029697;28;20072;-50
2021/12/03 13:15:49;;;;;;;5.25;4.50;;;;;;;4.42;100.00;96072.00;5031165;28;20574;-47
2021/12/03 14:38:36;;;;;;;7.55;4.45;;;;;;;3.49;100.00;96053.69;4963153;28;20496;-48
2021/12/03 14:41:37;;;;;;;5.47;4.70;;;;;;;3.82;100.00;96060.00;5018228;28;20546;-54
2021/12/03 14:44:14;;;;;;;;;;;;;;;3.54;100.00;96064.63;5029197;28;20567;-48
2021/12/03 14:47:10;;;;;;;4.88;4.25;;;;;;;3.52;100.00;96060.44;5005012;28;20505;-50
2021/12/03 14:52:58;;;;;;;4.20;3.75;;;;;;;3.08;100.00;96065.28;5032462;28;20080;-45
2021/12/03 14:55:28;;;;;;;5.10;4.28;;;;;;;3.01;100.00;96064.06;5013289;28;20111;-48
2021/12/03 14:58:02;;;;;;;8.10;4.97;;;;;;;3.00;100.00;96066.78;5023777;28;20739;-45
2021/12/03 15:00:35;;;;;;;6.50;4.80;;;;;;;2.95;100.00;96069.69;5017995;28;20073;-50
2021/12/03 15:06:07;;;;;;;5.90;5.18;;;;;;;2.99;100.00;96067.69;5027777;28;20061;-51
2021/12/03 15:08:41;;;;;;;6.85;4.97;;;;;;;3.02;100.00;96067.47;5025668;28;20037;-50
2021/12/03 15:23:20;;;;;;;6.10;5.50;;;;;;;2.97;100.00;96060.00;5064277;27;20654;-46
2021/12/03 15:26:00;;;;;;;8.23;5.55;;;;;;;3.03;100.00;96063.97;5058731;28;20470;-45
2021/12/03 15:29:06;;;;;;;6.72;5.32;;;;;;;3.09;100.00;96061.72;5061190;28;20064;-48
2021/12/03 15:31:47;;;;;;;10.68;5.65;;;;;;;2.94;100.00;96054.19;5079548;28;20061;-47
2021/12/03 15:34:32;;;;;;;8.32;5.47;;;;;;;2.82;100.00;96063.66;5081657;28;20068;-49
2021/12/03 15:37:16;;;;;;;8.00;5.80;;;;;;;2.73;100.00;96048.69;5082029;28;20538;-51
2021/12/03 15:40:07;;;;;;;8.32;5.72;;;;;;;2.82;100.00;96054.09;5080986;28;20810;-49
2021/12/03 16:04:54;;;;;;;9.63;6.70;;;;;;;2.34;100.00;96051.34;5079898;28;20577;-50
2021/12/03 16:07:46;;;;;;;9.65;6.63;;;;;;;2.30;100.00;96056.84;5076924;28;20060;-48
2021/12/03 16:10:19;;;;;;;9.52;6.45;;;;;;;2.30;100.00;96056.84;5077533;28;20068;-50
2021/12/03 16:13:03;;;;;;;9.38;6.57;;;;;;;2.29;100.00;96053.41;5082104;28;20075;-48
2021/12/03 16:15:57;;;;;;;14.15;7.15;;;;;;;2.35;100.00;96046.97;5081955;28;20068;-51
2021/12/03 16:52:07;;;;;;;9.30;6.63;;;;;;;2.53;100.00;96027.47;5064117;28;20509;-48
2021/12/03 16:54:56;;;;;;;10.13;6.40;;;;;;;2.58;100.00;96035.81;5068031;28;20068;-49
2021/12/03 16:57:29;;;;;;;9.65;6.25;;;;;;;2.43;100.00;96039.47;5068156;28;20064;-49